Time;durP1;ratioP1;P1;durP2;ratioP2;P2;SDS_P1;SDS_P2;PMS_P1;PMS_P2;Temp;Humidity;BMP_temperature;BMP_pressure;BME280_temperature;BME280_humidity;BME280_pressure;Samples;Min_cycle;Max_cycle;Signal;HPM_P1;HPM_P2
2023/03/22 00:01:33;;;;;;;;;;;;;;;11.31;100.00;99615.78;5081803;28;20036;-76
2023/03/22 00:03:59;;;;;;;;;;;;;;;11.31;100.00;99621.06;5085445;28;19989;-76
2023/03/22 00:06:25;;;;;;;;;;;;;;;11.33;100.00;99619.94;5081394;28;20352;-76
2023/03/22 00:08:51;;;;;;;;;;;;;;;11.38;100.00;99617.69;5084732;28;19928;-76
2023/03/22 00:11:17;;;;;;;;;;;;;;;11.31;100.00;99616.59;5083738;28;20007;-75
2023/03/22 00:13:45;;;;;;;;;;;;;;;11.25;100.00;99619.00;5083685;28;19932;-74
2023/03/22 00:16:11;;;;;;;;;;;;;;;11.17;100.00;99619.72;5081095;28;19932;-74
2023/03/22 00:18:37;;;;;;;;;;;;;;;11.15;100.00;99610.28;5086189;28;20396;-77
2023/03/22 00:21:02;;;;;;;;;;;;;;;11.08;100.00;99610.84;5081284;28;19974;-75
2023/03/22 00:23:28;;;;;;;;;;;;;;;11.06;100.00;99611.97;5084721;28;20012;-76
2023/03/22 00:25:53;;;;;;;;;;;;;;;11.09;100.00;99612.50;5081998;28;19985;-75
2023/03/22 00:28:19;;;;;;;;;;;;;;;11.06;100.00;99607.53;5083124;28;20290;-74
2023/03/22 00:30:52;;;;;;;;;;;;;;;11.11;100.00;99614.19;5082352;28;20057;-75
2023/03/22 00:33:17;;;;;;;;;;;;;;;11.15;100.00;99605.00;5082599;28;19927;-74
2023/03/22 00:35:53;;;;;;;;;;;;;;;11.15;100.00;99599.69;5097884;28;19924;-73
2023/03/22 00:38:18;;;;;;;;;;;;;;;11.18;100.00;99602.06;5081795;28;19996;-74
2023/03/22 00:40:44;;;;;;;;;;;;;;;11.14;100.00;99608.59;5081110;28;19925;-75
2023/03/22 00:43:09;;;;;;;;;;;;;;;11.10;100.00;99610.72;5065792;28;20273;-74
2023/03/22 00:45:39;;;;;;;;;;;;;;;11.01;100.00;99611.59;5062813;28;19965;-73
2023/03/22 00:48:09;;;;;;;;;;;;;;;10.84;100.00;99609.69;5098209;28;19931;-73
2023/03/22 00:50:35;;;;;;;;;;;;;;;10.79;100.00;99610.09;5063899;28;20015;-74
2023/03/22 00:53:01;;;;;;;;;;;;;;;10.70;100.00;99610.97;5088455;28;19920;-75
2023/03/22 00:55:26;;;;;;;;;;;;;;;10.62;100.00;99608.19;5066827;28;20018;-75
2023/03/22 00:57:51;;;;;;;;;;;;;;;10.51;100.00;99608.34;5081795;28;19982;-73
2023/03/22 01:00:17;;;;;;;;;;;;;;;10.52;100.00;99607.38;5068463;28;19935;-74
2023/03/22 01:02:43;;;;;;;;;;;;;;;10.50;100.00;99604.88;5067037;28;19924;-75
2023/03/22 01:05:14;;;;;;;;;;;;;;;10.48;100.00;99595.47;5079476;28;19931;-74
2023/03/22 01:07:40;;;;;;;;;;;;;;;10.40;100.00;99600.59;5061981;28;19966;-74
2023/03/22 01:10:06;;;;;;;;;;;;;;;10.45;100.00;99601.00;5064122;28;20022;-75
2023/03/22 01:12:31;;;;;;;;;;;;;;;10.39;100.00;99604.19;5082085;28;20026;-74
2023/03/22 01:14:57;;;;;;;;;;;;;;;10.37;100.00;99598.25;5078043;28;20018;-74
2023/03/22 01:17:22;;;;;;;;;;;;;;;10.46;100.00;99592.97;5064963;28;20448;-75
2023/03/22 01:19:48;;;;;;;;;;;;;;;10.40;100.00;99590.88;5059977;28;19973;-74
2023/03/22 01:22:13;;;;;;;;;;;;;;;10.44;100.00;99594.06;5066928;28;20031;-75
2023/03/22 01:24:38;;;;;;;;;;;;;;;10.47;100.00;99596.44;5065539;28;19920;-75
2023/03/22 01:27:04;;;;;;;;;;;;;;;10.50;100.00;99596.13;5069399;28;19943;-74
2023/03/22 01:29:30;;;;;;;;;;;;;;;10.43;100.00;99592.38;5064242;28;20370;-74
2023/03/22 01:31:55;;;;;;;;;;;;;;;10.37;100.00;99592.97;5066248;28;20280;-73
2023/03/22 01:34:21;;;;;;;;;;;;;;;10.01;100.00;99597.94;5091226;28;19924;-74
2023/03/22 01:36:46;;;;;;;;;;;;;;;10.02;100.00;99596.13;5065182;28;19921;-73
2023/03/22 01:39:13;;;;;;;;;;;;;;;10.02;100.00;99593.47;5064412;28;19928;-74
2023/03/22 01:41:39;;;;;;;;;;;;;;;10.09;100.00;99594.59;5068270;28;19920;-74
2023/03/22 01:44:19;;;;;;;;;;;;;;;10.07;100.00;99592.09;5064865;28;19963;-75
2023/03/22 01:46:46;;;;;;;;;;;;;;;10.07;100.00;99601.84;5067621;28;20425;-75
2023/03/22 01:49:13;;;;;;;;;;;;;;;10.09;100.00;99595.44;5067560;28;20269;-74
2023/03/22 01:51:40;;;;;;;;;;;;;;;10.08;100.00;99592.94;5066368;28;19964;-76
2023/03/22 01:54:20;;;;;;;;;;;;;;;10.13;100.00;99591.53;5067803;28;19921;-76
2023/03/22 01:56:47;;;;;;;;;;;;;;;10.13;100.00;99596.81;5070997;28;19920;-75
2023/03/22 01:59:19;;;;;;;;;;;;;;;10.09;100.00;99600.72;5065444;28;19924;-74
2023/03/22 02:02:03;;;;;;;;;;;;;;;10.08;100.00;99598.19;5064099;28;19934;-75
2023/03/22 02:04:37;;;;;;;;;;;;;;;9.95;100.00;99603.78;5083451;28;20063;-74
2023/03/22 02:07:14;;;;;;;;;;;;;;;9.89;100.00;99593.78;5067239;28;19920;-75
2023/03/22 02:09:42;;;;;;;;;;;;;;;9.85;100.00;99602.91;5067009;28;19995;-75
2023/03/22 02:12:25;;;;;;;;;;;;;;;9.84;100.00;99607.34;5068038;28;19928;-75
2023/03/22 02:14:51;;;;;;;;;;;;;;;9.74;100.00;99600.41;5068166;28;19927;-74
2023/03/22 02:17:42;;;;;;;;;;;;;;;9.83;100.00;99599.59;5086583;28;19920;-75
2023/03/22 02:20:14;;;;;;;;;;;;;;;9.75;100.00;99596.81;5067383;28;19954;-73
2023/03/22 02:22:51;;;;;;;;;;;;;;;9.81;100.00;99601.53;5066089;28;19920;-76
2023/03/22 02:25:37;;;;;;;;;;;;;;;9.76;100.00;99594.03;5090029;28;20086;-73
2023/03/22 02:28:11;;;;;;;;;;;;;;;9.73;100.00;99598.72;5058790;28;20379;-75
2023/03/22 02:30:49;;;;;;;;;;;;;;;9.79;100.00;99600.81;5101960;28;20445;-74
2023/03/22 02:33:23;;;;;;;;;;;;;;;9.83;100.00;99589.06;5068137;28;19927;-75
2023/03/22 02:35:59;;;;;;;;;;;;;;;9.81;100.00;99590.97;5067408;28;20034;-75
2023/03/22 02:38:44;;;;;;;;;;;;;;;9.72;100.00;99597.09;5095088;28;19953;-75
2023/03/22 02:41:16;;;;;;;;;;;;;;;9.62;100.00;99591.78;5084679;28;20388;-75
2023/03/22 02:43:50;;;;;;;;;;;;;;;9.55;100.00;99595.91;5082641;28;19964;-74
2023/03/22 02:46:25;;;;;;;;;;;;;;;9.43;100.00;99603.09;5086210;28;19996;-75
2023/03/22 02:49:01;;;;;;;;;;;;;;;9.38;100.00;99605.31;5065634;28;20010;-75
2023/03/22 02:51:32;;;;;;;;;;;;;;;9.47;100.00;99603.69;5067083;28;19956;-76
2023/03/22 02:54:02;;;;;;;;;;;;;;;9.50;100.00;99599.94;5082247;28;20380;-75
2023/03/22 02:56:34;;;;;;;;;;;;;;;9.48;100.00;99605.34;5069471;28;20364;-76
2023/03/22 02:59:01;;;;;;;;;;;;;;;9.55;100.00;99600.34;5082473;28;19928;-75
2023/03/22 03:01:32;;;;;;;;;;;;;;;9.43;100.00;99605.72;5080904;28;19966;-74
2023/03/22 03:04:00;;;;;;;;;;;;;;;9.10;100.00;99606.03;5085972;28;20021;-73
2023/03/22 03:06:27;;;;;;;;;;;;;;;9.19;100.00;99610.50;5082244;28;20000;-75
2023/03/22 03:08:56;;;;;;;;;;;;;;;9.22;100.00;99604.97;5064334;28;20839;-74
2023/03/22 03:11:22;;;;;;;;;;;;;;;9.33;100.00;99604.03;5064356;28;19952;-74
2023/03/22 03:13:48;;;;;;;;;;;;;;;9.27;100.00;99610.69;5068231;28;19989;-73
2023/03/22 03:16:16;;;;;;;;;;;;;;;9.29;100.00;99606.13;5098273;28;19966;-75
2023/03/22 03:18:47;;;;;;;;;;;;;;;9.36;100.00;99609.91;5068785;28;19959;-74
2023/03/22 03:21:22;;;;;;;;;;;;;;;9.35;100.00;99616.13;5063462;28;19925;-75
2023/03/22 03:23:53;;;;;;;;;;;;;;;9.31;100.00;99612.06;5085167;28;20260;-75
2023/03/22 03:26:18;;;;;;;;;;;;;;;9.21;100.00;99613.00;5083688;28;19931;-73
2023/03/22 03:28:55;;;;;;;;;;;;;;;9.24;100.00;99618.84;5066010;28;19919;-74
2023/03/22 03:31:27;;;;;;;;;;;;;;;9.23;100.00;99617.19;5084745;28;19921;-76
2023/03/22 03:33:57;;;;;;;;;;;;;;;9.19;100.00;99623.66;5083609;28;19920;-74
2023/03/22 03:36:24;;;;;;;;;;;;;;;9.05;100.00;99624.03;5084773;28;19920;-73
2023/03/22 03:38:51;;;;;;;;;;;;;;;9.01;100.00;99617.38;5082160;28;20021;-74
2023/03/22 03:41:22;;;;;;;;;;;;;;;8.94;100.00;99622.31;5066596;28;19920;-74
2023/03/22 03:43:50;;;;;;;;;;;;;;;8.62;100.00;99622.41;5083676;28;19927;-74
2023/03/22 03:46:16;;;;;;;;;;;;;;;8.45;100.00;99620.34;5066453;28;19927;-74
2023/03/22 03:48:43;;;;;;;;;;;;;;;8.60;100.00;99623.47;5081887;28;19917;-75
2023/03/22 03:51:09;;;;;;;;;;;;;;;8.62;100.00;99627.66;5084955;28;19920;-74
2023/03/22 03:53:34;;;;;;;;;;;;;;;8.60;100.00;99620.84;5067428;28;19916;-75
2023/03/22 03:56:00;;;;;;;;;;;;;;;8.63;100.00;99628.50;5083008;28;19943;-74
2023/03/22 03:58:32;;;;;;;;;;;;;;;8.59;100.00;99627.94;5060386;28;20373;-73
2023/03/22 04:00:57;;;;;;;;;;;;;;;8.56;100.00;99632.59;5067141;28;19936;-73
2023/03/22 04:03:43;;;;;;;;;;;;;;;8.66;100.00;99632.69;5071517;28;20434;-73
2023/03/22 04:06:11;;;;;;;;;;;;;;;8.62;100.00;99632.91;5084441;28;19920;-73
2023/03/22 04:08:40;;;;;;;;;;;;;;;8.63;100.00;99633.75;5064518;28;20328;-74
2023/03/22 04:11:06;;;;;;;;;;;;;;;8.70;100.00;99634.06;5065798;28;19924;-74
2023/03/22 04:13:32;;;;;;;;;;;;;;;8.77;100.00;99629.97;5064499;28;19935;-75
2023/03/22 04:16:01;;;;;;;;;;;;;;;8.65;100.00;99631.84;5068116;28;19920;-74
2023/03/22 04:18:30;;;;;;;;;;;;;;;8.69;100.00;99632.41;5065788;28;19924;-74
2023/03/22 04:20:59;;;;;;;;;;;;;;;8.58;100.00;99635.94;5063768;28;19920;-75
2023/03/22 04:23:27;;;;;;;;;;;;;;;8.50;100.00;99649.72;5065992;28;20291;-75
2023/03/22 04:25:53;;;;;;;;;;;;;;;8.35;100.00;99656.25;5067096;28;19928;-75
2023/03/22 04:28:32;;;;;;;;;;;;;;;8.14;100.00;99655.34;5063766;28;19938;-75
2023/03/22 04:30:58;;;;;;;;;;;;;;;8.14;100.00;99652.69;5063655;28;20405;-75
2023/03/22 04:33:47;;;;;;;;;;;;;;;7.79;100.00;99648.50;5063437;28;19916;-74
2023/03/22 04:36:29;;;;;;;;;;;;;;;7.76;100.00;99653.19;5062549;28;19920;-73
2023/03/22 04:39:22;;;;;;;;;;;;;;;7.57;100.00;99652.97;5066214;28;19985;-74
2023/03/22 04:41:58;;;;;;;;;;;;;;;7.69;100.00;99647.59;5063203;28;19928;-74
2023/03/22 04:44:24;;;;;;;;;;;;;;;7.73;100.00;99653.41;5065282;28;20400;-74
2023/03/22 04:46:51;;;;;;;;;;;;;;;7.82;100.00;99648.28;5065398;28;19920;-74
2023/03/22 04:49:16;;;;;;;;;;;;;;;7.89;100.00;99651.25;5065197;28;19931;-73
2023/03/22 04:51:42;;;;;;;;;;;;;;;8.03;100.00;99655.38;5087993;28;19920;-72
2023/03/22 04:54:33;;;;;;;;;;;;;;;8.11;100.00;99652.97;5085760;28;20391;-74
2023/03/22 04:57:00;;;;;;;;;;;;;;;8.04;100.00;99657.06;5064521;28;19920;-75
2023/03/22 04:59:27;;;;;;;;;;;;;;;7.79;100.00;99659.03;5066358;28;19924;-73
2023/03/22 05:01:53;;;;;;;;;;;;;;;7.54;100.00;99654.03;5063109;28;19924;-74
2023/03/22 05:04:23;;;;;;;;;;;;;;;7.50;100.00;99650.00;5081316;28;19924;-74
2023/03/22 05:06:55;;;;;;;;;;;;;;;7.50;100.00;99647.38;5066196;28;20406;-73
2023/03/22 05:09:26;;;;;;;;;;;;;;;7.55;100.00;99652.25;5084288;28;19928;-73
2023/03/22 05:11:52;;;;;;;;;;;;;;;7.64;100.00;99647.13;5050174;28;19959;-73
2023/03/22 05:14:35;;;;;;;;;;;;;;;7.75;100.00;99654.13;5075988;28;19932;-72
2023/03/22 05:17:02;;;;;;;;;;;;;;;7.28;100.00;99658.72;5065473;28;19924;-74
2023/03/22 05:19:28;;;;;;;;;;;;;;;7.25;100.00;99663.34;5063246;28;19920;-75
2023/03/22 05:22:00;;;;;;;;;;;;;;;7.36;100.00;99660.75;5072877;28;19969;-75
2023/03/22 05:24:38;;;;;;;;;;;;;;;7.49;100.00;99655.34;5070025;28;20298;-75
2023/03/22 05:27:04;;;;;;;;;;;;;;;7.62;100.00;99664.78;5066782;28;19920;-75
2023/03/22 05:29:35;;;;;;;;;;;;;;;7.64;100.00;99670.75;5068489;28;20661;-73
2023/03/22 05:32:08;;;;;;;;;;;;;;;7.67;100.00;99670.50;5070958;28;19939;-75
2023/03/22 05:34:34;;;;;;;;;;;;;;;7.62;100.00;99675.28;5066691;28;19931;-74
2023/03/22 05:37:06;;;;;;;;;;;;;;;7.69;100.00;99667.75;5065577;28;19924;-74
2023/03/22 05:39:43;;;;;;;;;;;;;;;7.60;100.00;99666.69;5068916;28;20368;-75
2023/03/22 05:42:09;;;;;;;;;;;;;;;7.57;100.00;99669.56;5085473;28;20462;-74
2023/03/22 05:44:35;;;;;;;;;;;;;;;7.57;100.00;99668.72;5071978;28;20292;-75
2023/03/22 05:47:06;;;;;;;;;;;;;;;7.47;100.00;99668.63;5070854;28;20011;-76
2023/03/22 05:49:34;;;;;;;;;;;;;;;7.50;100.00;99673.63;5069153;28;19934;-75
2023/03/22 05:52:03;;;;;;;;;;;;;;;7.23;100.00;99683.66;5068400;28;19923;-74
2023/03/22 05:54:37;;;;;;;;;;;;;;;6.96;100.00;99683.97;5065275;28;19920;-74
2023/03/22 05:57:03;;;;;;;;;;;;;;;6.91;100.00;99683.47;5072274;28;19931;-75
2023/03/22 05:59:28;;;;;;;;;;;;;;;6.83;100.00;99684.06;5070010;28;19920;-75
2023/03/22 06:01:54;;;;;;;;;;;;;;;6.82;100.00;99689.44;5066127;28;19921;-75
2023/03/22 06:04:22;;;;;;;;;;;;;;;6.66;100.00;99689.72;5067353;28;19920;-73
2023/03/22 06:06:54;;;;;;;;;;;;;;;6.62;100.00;99688.31;5069883;28;19927;-73
2023/03/22 06:09:40;;;;;;;;;;;;;;;6.76;100.00;99688.13;5045755;28;20057;-74
2023/03/22 06:12:09;;;;;;;;;;;;;;;6.93;100.00;99685.06;5085420;28;19943;-75
2023/03/22 06:14:35;;;;;;;;;;;;;;;7.08;100.00;99693.53;5063137;28;20402;-73
2023/03/22 06:17:10;;;;;;;;;;;;;;;7.16;100.00;99685.06;5046591;28;20419;-73
2023/03/22 06:19:36;;;;;;;;;;;;;;;7.30;100.00;99688.28;5039862;28;19924;-72
2023/03/22 06:22:03;;;;;;;;;;;;;;;7.39;100.00;99697.25;5045276;28;19925;-71
2023/03/22 06:24:31;;;;;;;;;;;;;;;7.42;100.00;99691.78;5045259;28;19924;-72
2023/03/22 06:26:56;;;;;;;;;;;;;;;7.59;100.00;99686.03;5045370;28;20795;-71
2023/03/22 06:29:22;;;;;;;;;;;;;;;7.69;100.00;99692.22;5042571;28;20342;-72
2023/03/22 06:31:50;;;;;;;;;;;;;;;7.76;100.00;99696.06;5039637;28;19968;-69
2023/03/22 06:34:16;;;;;;;;;;;;;;;7.78;100.00;99696.75;5041133;28;19956;-71
2023/03/22 06:36:41;;;;;;;;;;;;;;;7.74;100.00;99703.22;5042223;28;20345;-69
2023/03/22 06:39:11;;;;;;;;;;;;;;;7.80;100.00;99697.47;5043326;28;20736;-71
2023/03/22 06:41:39;;;;;;;;;;;;;;;7.86;100.00;99695.31;5043337;28;19964;-71
2023/03/22 06:44:04;;;;;;;;;;;;;;;7.89;100.00;99695.09;5043564;28;19968;-70
2023/03/22 06:46:52;;;;;;;;;;;;;;;7.92;100.00;99694.81;5044740;28;20448;-71
2023/03/22 06:49:34;;;;;;;;;;;;;;;8.11;100.00;99708.16;5039593;28;19925;-72
2023/03/22 06:52:00;;;;;;;;;;;;;;;8.06;100.00;99707.69;5044611;28;19920;-71
2023/03/22 06:54:26;;;;;;;;;;;;;;;7.94;100.00;99713.94;5041702;28;20385;-70
2023/03/22 06:56:52;;;;;;;;;;;;;;;8.12;100.00;99704.59;5044312;28;19936;-71
2023/03/22 06:59:17;;;;;;;;;;;;;;;8.21;100.00;99707.28;5063353;28;20302;-72
2023/03/22 07:01:43;;;;;;;;;;;;;;;8.27;100.00;99705.13;5041805;28;19929;-73
2023/03/22 07:04:09;;;;;;;;;;;;;;;8.28;100.00;99712.91;5039705;28;19924;-73
2023/03/22 07:06:35;;;;;;;;;;;;;;;8.41;100.00;99708.34;5039606;28;19928;-73
2023/03/22 07:09:01;;;;;;;;;;;;;;;8.38;100.00;99708.59;5060179;28;19921;-74
2023/03/22 07:11:30;;;;;;;;;;;;;;;8.49;100.00;99705.91;5025749;28;19929;-73
2023/03/22 07:14:01;;;;;;;;;;;;;;;8.62;100.00;99706.56;5057417;28;20432;-73
2023/03/22 07:16:40;;;;;;;;;;;;;;;8.78;100.00;99715.81;5062153;28;19920;-73
2023/03/22 07:19:06;;;;;;;;;;;;;;;8.76;100.00;99713.34;5065549;28;19970;-73
2023/03/22 07:21:31;;;;;;;;;;;;;;;8.78;100.00;99721.91;5060403;28;19924;-72
2023/03/22 07:24:02;;;;;;;;;;;;;;;8.96;100.00;99720.38;5065403;28;19944;-72
2023/03/22 07:26:30;;;;;;;;;;;;;;;8.87;100.00;99730.84;5062441;28;19925;-73
2023/03/22 07:28:56;;;;;;;;;;;;;;;9.03;100.00;99725.97;5060604;28;19921;-71
2023/03/22 07:31:26;;;;;;;;;;;;;;;9.18;100.00;99723.84;5060498;28;19920;-72
2023/03/22 07:33:58;;;;;;;;;;;;;;;9.27;100.00;99730.97;5049742;28;19936;-73
2023/03/22 07:36:25;;;;;;;;;;;;;;;9.37;100.00;99735.31;5058720;28;19921;-71
2023/03/22 07:38:52;;;;;;;;;;;;;;;9.51;100.00;99743.84;5064438;28;19928;-73
2023/03/22 07:41:26;;;;;;;;;;;;;;;9.60;100.00;99737.81;5064956;28;19927;-71
2023/03/22 07:44:01;;;;;;;;;;;;;;;9.84;100.00;99748.81;5059827;28;20369;-73
2023/03/22 07:46:28;;;;;;;;;;;;;;;9.87;100.00;99748.56;5062747;28;19994;-73
2023/03/22 07:49:13;;;;;;;;;;;;;;;10.07;100.00;99752.94;5066121;28;19924;-72
2023/03/22 07:51:57;;;;;;;;;;;;;;;10.18;100.00;99752.88;5062367;28;19982;-72
2023/03/22 07:54:22;;;;;;;;;;;;;;;10.17;100.00;99755.63;5064578;28;19925;-73
2023/03/22 07:56:48;;;;;;;;;;;;;;;10.33;100.00;99760.38;5060092;28;20337;-73
2023/03/22 07:59:15;;;;;;;;;;;;;;;10.41;100.00;99757.91;5063211;28;19975;-74
2023/03/22 08:01:41;;;;;;;;;;;;;;;10.50;100.00;99751.78;5061501;28;19921;-73
2023/03/22 08:04:18;;;;;;;;;;;;;;;10.60;100.00;99756.09;5059546;28;19921;-73
2023/03/22 08:07:08;;;;;;;;;;;;;;;10.79;100.00;99747.38;5061103;28;19920;-73
2023/03/22 08:09:35;;;;;;;;;;;;;;;10.87;100.00;99750.16;5043569;28;19931;-73
2023/03/22 08:12:00;;;;;;;;;;;;;;;11.04;100.00;99746.78;5066316;28;19943;-72
2023/03/22 08:14:26;;;;;;;;;;;;;;;11.06;100.00;99758.06;5078696;28;19926;-73
2023/03/22 08:16:51;;;;;;;;;;;;;;;11.12;100.00;99754.03;5062736;28;20376;-73
2023/03/22 08:19:16;;;;;;;;;;;;;;;11.21;100.00;99752.31;5082730;28;19920;-74
2023/03/22 08:21:42;;;;;;;;;;;;;;;11.37;100.00;99747.28;5062974;28;19920;-73
2023/03/22 08:24:21;;;;;;;;;;;;;;;11.45;100.00;99750.88;5059530;28;19921;-73
2023/03/22 08:26:53;;;;;;;;;;;;;;;11.52;100.00;99751.13;5064689;28;20010;-73
2023/03/22 08:29:26;;;;;;;;;;;;;;;11.62;100.00;99751.94;5061665;28;20519;-73
2023/03/22 08:31:51;;;;;;;;;;;;;;;11.71;100.00;99748.44;5065357;28;19927;-73
2023/03/22 08:34:17;;;;;;;;;;;;;;;11.75;100.00;99747.19;5080061;28;19920;-73
2023/03/22 08:36:44;;;;;;;;;;;;;;;11.81;100.00;99751.06;5061439;28;19932;-73
2023/03/22 08:39:09;;;;;;;;;;;;;;;11.90;100.00;99761.59;5061559;28;19920;-74
2023/03/22 08:41:51;;;;;;;;;;;;;;;12.06;100.00;99752.19;5064728;28;19927;-73
2023/03/22 08:44:17;;;;;;;;;;;;;;;12.14;100.00;99752.28;5063923;28;19920;-74
2023/03/22 08:46:43;;;;;;;;;;;;;;;12.24;100.00;99753.91;5084263;28;19920;-74
2023/03/22 08:49:09;;;;;;;;;;;;;;;12.39;100.00;99754.22;5068064;28;19927;-73
2023/03/22 08:51:39;;;;;;;;;;;;;;;12.50;100.00;99756.66;5066070;28;19920;-73
2023/03/22 08:54:14;;;;;;;;;;;;;;;12.46;100.00;99752.66;5064301;28;19928;-73
2023/03/22 08:56:51;;;;;;;;;;;;;;;12.38;100.00;99760.50;5082858;28;19928;-72
2023/03/22 08:59:28;;;;;;;;;;;;;;;12.39;100.00;99762.16;5071744;28;19931;-74
2023/03/22 09:02:16;;;;;;;;;;;;;;;12.59;100.00;99750.47;5046572;28;19969;-74
2023/03/22 09:04:42;;;;;;;;;;;;;;;12.71;100.00;99762.50;5069406;28;19967;-74
2023/03/22 09:07:07;;;;;;;;;;;;;;;12.85;100.00;99757.63;5069834;28;20316;-75
2023/03/22 09:09:33;;;;;;;;;;;;;;;12.97;100.00;99759.06;5065285;28;20380;-73
2023/03/22 09:11:59;;;;;;;;;;;;;;;13.07;100.00;99773.06;5068899;28;20014;-74
2023/03/22 09:14:25;;;;;;;;;;;;;;;13.09;100.00;99765.78;4984422;28;1833773;-73
2023/03/22 09:16:51;;;;;;;;;;;;;;;13.07;100.00;99767.78;5067431;28;19920;-74
2023/03/22 09:19:16;;;;;;;;;;;;;;;13.22;100.00;99763.59;5068855;28;19920;-73
2023/03/22 09:21:42;;;;;;;;;;;;;;;13.36;100.00;99765.72;5083996;28;19966;-74
2023/03/22 09:24:14;;;;;;;;;;;;;;;13.50;100.00;99753.69;5065794;28;19921;-74
2023/03/22 09:26:46;;;;;;;;;;;;;;;13.59;100.00;99762.53;5069451;28;19920;-74
2023/03/22 09:29:14;;;;;;;;;;;;;;;13.77;100.00;99760.66;5068599;28;20004;-74
2023/03/22 09:31:40;;;;;;;;;;;;;;;13.93;100.00;99758.06;5067698;28;20022;-74
2023/03/22 09:34:17;;;;;;;;;;;;;;;14.06;100.00;99754.97;5065862;28;19920;-73
2023/03/22 09:36:42;;;;;;;;;;;;;;;14.19;100.00;99756.19;5069300;28;19920;-74
2023/03/22 09:39:09;;;;;;;;;;;;;;;14.22;100.00;99750.53;5066484;28;19928;-74
2023/03/22 09:41:34;;;;;;;;;;;;;;;14.24;100.00;99753.88;5081739;28;19924;-73
2023/03/22 09:44:02;;;;;;;;;;;;;;;14.34;100.00;99748.41;5065389;28;19920;-74
2023/03/22 09:46:35;;;;;;;;;;;;;;;14.39;100.00;99746.13;5069672;28;19954;-74
2023/03/22 09:49:03;;;;;;;;;;;;;;;14.46;100.00;99741.84;5088089;28;20018;-74
2023/03/22 09:51:34;;;;;;;;;;;;;;;14.54;100.00;99743.69;5088338;28;20026;-73
2023/03/22 09:54:00;;;;;;;;;;;;;;;14.61;100.00;99734.06;5083709;28;20035;-74
2023/03/22 09:56:28;;;;;;;;;;;;;;;14.71;100.00;99735.59;5084708;28;20387;-74
2023/03/22 09:58:53;;;;;;;;;;;;;;;14.73;100.00;99732.75;5086211;28;19924;-74
2023/03/22 10:01:37;;;;;;;;;;;;;;;14.80;100.00;99728.44;5085859;28;19927;-73
2023/03/22 10:04:12;;;;;;;;;;;;;;;14.91;100.00;99730.75;5085376;28;19920;-75
2023/03/22 10:06:39;;;;;;;;;;;;;;;14.98;100.00;99726.44;5083284;28;19920;-75
2023/03/22 10:09:04;;;;;;;;;;;;;;;15.05;100.00;99723.94;5087736;28;19963;-73
2023/03/22 10:11:46;;;;;;;;;;;;;;;15.08;100.00;99727.09;5082970;28;20395;-73
2023/03/22 10:14:17;;;;;;;;;;;;;;;15.12;100.00;99736.41;5083509;28;19919;-74
2023/03/22 10:16:43;;;;;;;;;;;;;;;15.16;100.00;99724.44;5084052;28;19920;-74
2023/03/22 10:19:21;;;;;;;;;;;;;;;15.22;100.00;99719.44;5084027;28;19920;-75
2023/03/22 10:21:48;;;;;;;;;;;;;;;15.33;100.00;99713.78;5085507;28;19924;-75
2023/03/22 10:24:19;;;;;;;;;;;;;;;15.39;100.00;99711.28;5068360;28;20388;-73
2023/03/22 10:26:45;;;;;;;;;;;;;;;15.48;100.00;99714.75;5084711;28;19942;-76
2023/03/22 10:29:19;;;;;;;;;;;;;;;15.56;100.00;99720.06;5082520;28;20003;-76
2023/03/22 10:31:45;;;;;;;;;;;;;;;15.64;100.00;99712.06;5086983;28;20335;-74
2023/03/22 10:34:16;;;;;;;;;;;;;;;15.70;100.00;99714.06;5082837;28;19921;-74
2023/03/22 10:36:43;;;;;;;;;;;;;;;15.78;99.75;99707.88;5083839;28;19920;-73
2023/03/22 10:39:15;;;;;;;;;;;;;;;15.83;95.59;99703.69;5083356;28;19959;-73
2023/03/22 10:41:41;;;;;;;;;;;;;;;15.84;95.40;99705.34;5084274;28;19920;-73
2023/03/22 10:44:07;;;;;;;;;;;;;;;15.89;94.86;99700.34;5084293;28;20042;-76
2023/03/22 10:46:35;;;;;;;;;;;;;;;15.93;94.24;99701.66;5082606;28;19995;-74
2023/03/22 10:49:02;;;;;;;;;;;;;;;16.02;92.61;99693.63;5086766;28;19990;-74
2023/03/22 10:51:36;;;;;;;;;;;;;;;16.09;92.40;99694.56;5083899;28;20101;-72
2023/03/22 10:54:04;;;;;;;;;;;;;;;16.15;93.06;99699.19;5086711;28;20011;-73
2023/03/22 10:56:29;;;;;;;;;;;;;;;16.21;93.88;99698.50;5085431;28;20365;-73
2023/03/22 10:58:56;;;;;;;;;;;;;;;16.25;93.13;99689.19;5085362;28;19967;-72
2023/03/22 11:01:24;;;;;;;;;;;;;;;16.28;92.84;99689.66;5085475;28;20364;-74
2023/03/22 11:03:51;;;;;;;;;;;;;;;16.35;93.24;99684.44;5080666;28;20334;-76
2023/03/22 11:06:23;;;;;;;;;;;;;;;16.41;92.55;99678.41;4725809;28;10000379;-72
2023/03/22 11:08:55;;;;;;;;;;;;;;;16.46;92.49;99676.03;5084222;28;20014;-74
2023/03/22 11:11:23;;;;;;;;;;;;;;;16.57;91.71;99672.97;5066046;28;19923;-74
2023/03/22 11:13:49;;;;;;;;;;;;;;;16.70;92.27;99673.22;5086196;28;19942;-75
2023/03/22 11:16:16;;;;;;;;;;;;;;;16.83;92.61;99661.13;5068899;28;19955;-72
2023/03/22 11:18:42;;;;;;;;;;;;;;;16.94;91.20;99663.38;5085921;28;19927;-72
2023/03/22 11:21:09;;;;;;;;;;;;;;;17.05;90.25;99654.91;5084181;28;19920;-74
2023/03/22 11:23:37;;;;;;;;;;;;;;;17.18;89.37;99660.47;5068752;28;20401;-74
2023/03/22 11:26:10;;;;;;;;;;;;;;;17.25;89.17;99655.22;5087582;28;19928;-74
2023/03/22 11:28:45;;;;;;;;;;;;;;;17.31;88.15;99660.66;5080533;28;20557;-75
2023/03/22 11:31:13;;;;;;;;;;;;;;;17.43;87.37;99661.03;5080344;28;20018;-75
2023/03/22 11:33:59;;;;;;;;;;;;;;;17.44;86.65;99666.16;5096588;28;20268;-74
2023/03/22 11:36:24;;;;;;;;;;;;;;;17.52;86.85;99652.75;5081557;28;19928;-75
2023/03/22 11:38:57;;;;;;;;;;;;;;;17.61;86.46;99652.69;5087912;28;20360;-75
2023/03/22 11:41:30;;;;;;;;;;;;;;;17.66;85.66;99648.44;5066128;28;20272;-75
2023/03/22 11:43:58;;;;;;;;;;;;;;;17.78;85.23;99646.13;5082133;28;20303;-75
2023/03/22 11:46:24;;;;;;;;;;;;;;;17.90;83.87;99644.63;5085092;28;19924;-75
2023/03/22 11:48:51;;;;;;;;;;;;;;;18.02;83.12;99651.16;5082387;28;19927;-75
2023/03/22 11:51:24;;;;;;;;;;;;;;;18.11;80.70;99646.50;5085031;28;19965;-76
2023/03/22 11:53:54;;;;;;;;;;;;;;;18.18;79.78;99640.22;5084452;28;20430;-76
2023/03/22 11:56:24;;;;;;;;;;;;;;;18.27;80.19;99632.91;5082876;28;19920;-76
2023/03/22 11:59:02;;;;;;;;;;;;;;;18.37;80.91;99628.09;5062974;28;19920;-75
2023/03/22 12:01:28;;;;;;;;;;;;;;;18.49;81.22;99623.06;5083253;28;19920;-75
2023/03/22 12:03:56;;;;;;;;;;;;;;;18.61;81.11;99622.38;5084097;28;20019;-74
2023/03/22 12:06:21;;;;;;;;;;;;;;;18.64;79.99;99621.16;5083931;28;19927;-74
2023/03/22 12:09:05;;;;;;;;;;;;;;;18.69;79.66;99613.38;5083426;28;19916;-74
2023/03/22 12:11:38;;;;;;;;;;;;;;;18.79;79.58;99606.66;5081614;28;20439;-74
2023/03/22 12:14:12;;;;;;;;;;;;;;;18.93;78.80;99610.28;5085359;28;19993;-75
2023/03/22 12:16:57;;;;;;;;;;;;;;;19.08;78.26;99611.00;5082496;28;19967;-74
2023/03/22 12:19:22;;;;;;;;;;;;;;;19.17;75.76;99609.81;5081887;28;20364;-74
2023/03/22 12:21:48;;;;;;;;;;;;;;;19.18;74.50;99603.47;5083204;28;20019;-74
2023/03/22 12:24:39;;;;;;;;;;;;;;;19.19;75.32;99593.59;5080995;28;19951;-74
2023/03/22 12:27:08;;;;;;;;;;;;;;;19.28;73.62;99588.88;5078032;28;19931;-74
2023/03/22 12:29:35;;;;;;;;;;;;;;;19.45;72.77;99592.88;5048620;28;20371;-76
2023/03/22 12:32:03;;;;;;;;;;;;;;;19.51;72.06;99586.75;5080240;28;19998;-77
2023/03/22 12:34:35;;;;;;;;;;;;;;;19.56;70.90;99586.97;5084118;28;20039;-75
2023/03/22 12:37:02;;;;;;;;;;;;;;;19.58;69.00;99577.75;5083189;28;20270;-74
2023/03/22 12:39:33;;;;;;;;;;;;;;;19.66;68.82;99584.78;5083807;28;20006;-75
2023/03/22 12:42:02;;;;;;;;;;;;;;;19.74;68.82;99573.88;5081888;28;20385;-75
2023/03/22 12:44:31;;;;;;;;;;;;;;;19.84;67.50;99577.00;5085121;28;19920;-74
2023/03/22 12:46:59;;;;;;;;;;;;;;;20.00;66.52;99570.44;5082980;28;19968;-74
2023/03/22 12:49:29;;;;;;;;;;;;;;;20.20;65.82;99571.31;5083264;28;19927;-74
2023/03/22 12:52:09;;;;;;;;;;;;;;;20.31;64.29;99561.84;5088825;28;19923;-72
2023/03/22 12:54:35;;;;;;;;;;;;;;;20.42;64.17;99558.59;5083821;28;20414;-74
2023/03/22 12:57:01;;;;;;;;;;;;;;;20.53;63.38;99571.38;5061824;28;19989;-73